createdAt,value
2016-05-09T00:00:39.403Z,1018.78
2016-05-09T00:01:39.437Z,1018.79
2016-05-09T00:02:39.457Z,1018.75
2016-05-09T00:03:39.474Z,1018.75
2016-05-09T00:04:39.493Z,1018.75
2016-05-09T00:05:39.511Z,1018.78
2016-05-09T00:07:05.217Z,1018.77
2016-05-09T00:07:49.173Z,1018.81
2016-05-09T00:08:49.176Z,1018.85
2016-05-09T00:09:49.240Z,1018.82
2016-05-09T00:10:49.228Z,1018.83
2016-05-09T00:11:49.245Z,1018.83
2016-05-09T00:13:14.939Z,1018.81
2016-05-09T00:13:49.329Z,1018.85
2016-05-09T00:14:49.317Z,1018.82
2016-05-09T00:15:49.319Z,1018.82
2016-05-09T00:17:00.197Z,1018.86
2016-05-09T00:18:00.214Z,1018.83
2016-05-09T00:19:00.249Z,1018.8
2016-05-09T00:20:00.267Z,1018.81
2016-05-09T00:21:15.508Z,1018.8
2016-05-09T00:22:15.510Z,1018.79
2016-05-09T00:23:15.544Z,1018.85
2016-05-09T00:24:15.562Z,1018.82
2016-05-09T00:25:15.580Z,1018.8
2016-05-09T00:26:15.613Z,1018.83
2016-05-09T00:27:15.617Z,1018.86
2016-05-09T00:28:15.635Z,1018.89
2016-05-09T00:29:15.669Z,1018.86
2016-05-09T00:30:15.688Z,1018.89
2016-05-09T00:31:28.424Z,1018.85
2016-05-09T00:32:17.146Z,1018.87
2016-05-09T00:33:15.743Z,1018.87
2016-05-09T00:34:28.510Z,1018.89
2016-05-09T00:35:15.779Z,1018.85
2016-05-09T00:36:15.813Z,1018.87
2016-05-09T00:37:15.831Z,1018.89
2016-05-09T00:38:15.850Z,1018.93
2016-05-09T00:39:15.868Z,1018.92
2016-05-09T00:40:35.090Z,1018.86
2016-05-09T00:41:15.920Z,1018.83
2016-05-09T00:42:15.939Z,1018.86
2016-05-09T00:43:15.957Z,1018.89
2016-05-09T00:44:15.976Z,1018.85
2016-05-09T00:45:15.993Z,1018.89
2016-05-09T00:46:16.043Z,1018.89
2016-05-09T00:47:28.780Z,1018.88
2016-05-09T00:48:16.064Z,1018.89
2016-05-09T00:49:16.082Z,1018.93
2016-05-09T00:50:17.523Z,1018.89
2016-05-09T00:51:16.119Z,1018.93
2016-05-09T00:52:16.153Z,1018.89
2016-05-09T00:53:17.577Z,1018.9
2016-05-09T00:54:16.189Z,1018.88
2016-05-09T00:55:16.208Z,1018.86
2016-05-09T00:56:16.226Z,1018.83
2016-05-09T00:57:16.244Z,1018.86
2016-05-09T00:58:16.279Z,1018.87
2016-05-09T00:59:16.297Z,1018.87
2016-05-09T01:00:16.299Z,1018.84
2016-05-09T01:01:16.318Z,1018.9
2016-05-09T01:02:16.352Z,1018.96
2016-05-09T01:03:16.370Z,1018.96
2016-05-09T01:04:35.591Z,1018.92
2016-05-09T01:05:16.423Z,1018.91
2016-05-09T01:06:16.425Z,1018.91
2016-05-09T01:07:29.193Z,1018.88
2016-05-09T01:08:16.476Z,1018.91
2016-05-09T01:09:16.496Z,1018.89
2016-05-09T01:10:16.530Z,1018.92
2016-05-09T01:11:16.532Z,1018.95
2016-05-09T01:12:16.550Z,1018.9
2016-05-09T01:13:19.631Z,1018.91
2016-05-09T01:14:16.602Z,1018.9
2016-05-09T01:15:16.621Z,1018.92
2016-05-09T01:16:16.640Z,1018.9
2016-05-09T01:17:16.658Z,1018.88
2016-05-09T01:18:16.676Z,1018.89
2016-05-09T01:19:29.444Z,1018.9
2016-05-09T01:20:16.728Z,1018.92
2016-05-09T01:21:35.933Z,1018.94
2016-05-09T01:22:16.765Z,1018.9
2016-05-09T01:23:42.455Z,1018.94
2016-05-09T01:24:39.130Z,1019.01
2016-05-09T01:25:26.413Z,1018.99
2016-05-09T01:26:52.104Z,1018.95
2016-05-09T01:27:35.982Z,1018.98
2016-05-09T01:28:36.016Z,1018.97
2016-05-09T01:29:36.033Z,1018.98
2016-05-09T01:30:36.052Z,1019
2016-05-09T01:32:01.742Z,1019.01
2016-05-09T01:32:36.088Z,1019.01
2016-05-09T01:33:36.107Z,1018.97
2016-05-09T01:34:36.141Z,1018.97
2016-05-09T01:35:37.565Z,1019
2016-05-09T01:36:36.177Z,1018.98
2016-05-09T01:37:36.195Z,1018.99
2016-05-09T01:38:36.230Z,1018.99
2016-05-09T01:39:36.233Z,1019
2016-05-09T01:40:36.251Z,1018.97
2016-05-09T01:41:36.285Z,1018.95
2016-05-09T01:42:49.037Z,1018.97
2016-05-09T01:43:36.320Z,1018.97
2016-05-09T01:45:02.012Z,1019.01
2016-05-09T01:45:36.358Z,1018.99
2016-05-09T01:46:36.376Z,1018.98
2016-05-09T01:47:51.473Z,1019.01
2016-05-09T01:48:51.491Z,1019.01
2016-05-09T01:49:54.556Z,1019.05
2016-05-09T01:51:04.277Z,1019.05
2016-05-09T01:51:51.547Z,1018.99
2016-05-09T01:52:51.627Z,1018.97
2016-05-09T01:53:51.598Z,1018.98
2016-05-09T01:54:51.600Z,1018.98
2016-05-09T01:55:51.635Z,1019.04
2016-05-09T01:56:51.669Z,1019.04
2016-05-09T01:57:51.672Z,1019.02
2016-05-09T01:58:51.690Z,1019.03
2016-05-09T01:59:54.755Z,1019
2016-05-09T02:00:51.741Z,1018.99
2016-05-09T02:01:51.760Z,1019.01
2016-05-09T02:03:01.497Z,1018.99
2016-05-09T02:04:01.532Z,1019.02
2016-05-09T02:05:04.566Z,1019.02
2016-05-09T02:06:04.599Z,1019.04
2016-05-09T02:07:01.570Z,1019.02
2016-05-09T02:08:01.682Z,1019.01
2016-05-09T02:09:01.624Z,1018.97
2016-05-09T02:10:20.848Z,1018.99
2016-05-09T02:11:01.660Z,1018.98
2016-05-09T02:13:27.386Z,1018.98
2016-05-09T02:14:01.714Z,1018.96
2016-05-09T02:16:17.129Z,1018.97
2016-05-09T02:17:17.006Z,1019.01
2016-05-09T02:18:17.025Z,1019
2016-05-09T02:19:17.058Z,1018.98
2016-05-09T02:20:17.077Z,1018.99
2016-05-09T02:21:17.080Z,1018.96
2016-05-09T02:22:17.114Z,1018.99
2016-05-09T02:23:17.163Z,1019.01
2016-05-09T02:24:17.157Z,1019.04
2016-05-09T02:25:17.159Z,1019.04
2016-05-09T02:26:17.194Z,1019.01
2016-05-09T02:27:17.213Z,1019.02
2016-05-09T02:28:17.230Z,1018.99
2016-05-09T02:29:17.248Z,1018.99
2016-05-09T02:30:17.267Z,1019
2016-05-09T02:31:42.957Z,1019.01
2016-05-09T02:32:42.976Z,1019.03
2016-05-09T02:33:26.994Z,1019.01
2016-05-09T02:34:52.684Z,1019.03
2016-05-09T02:35:27.031Z,1018.99
2016-05-09T02:36:27.048Z,1019.02
2016-05-09T02:37:39.817Z,1019
2016-05-09T02:38:27.101Z,1019
2016-05-09T02:39:27.104Z,1019.01
2016-05-09T02:40:28.559Z,1019
2016-05-09T02:41:27.156Z,1019.04
2016-05-09T02:42:27.175Z,1019.02
2016-05-09T02:43:27.192Z,1019.01
2016-05-09T02:44:27.414Z,1018.99
2016-05-09T02:45:27.230Z,1019.01
2016-05-09T02:46:27.247Z,1018.98
2016-05-09T02:48:27.300Z,1018.98
2016-05-09T02:49:27.319Z,1018.98
2016-05-09T02:50:27.336Z,1019
2016-05-09T02:51:27.355Z,1019
2016-05-09T02:52:27.388Z,1018.98
2016-05-09T02:53:27.391Z,1018.95
2016-05-09T02:54:27.409Z,1018.98
2016-05-09T02:55:27.444Z,1018.97
2016-05-09T02:56:27.446Z,1018.96
2016-05-09T02:57:27.558Z,1018.98
2016-05-09T02:58:27.482Z,1018.99
2016-05-09T02:59:27.518Z,1019
2016-05-09T03:00:27.535Z,1018.99
2016-05-09T03:01:27.554Z,1018.99
2016-05-09T03:02:27.915Z,1019
2016-05-09T03:03:27.637Z,1018.96
2016-05-09T03:04:27.717Z,1019
2016-05-09T03:05:27.689Z,1018.98
2016-05-09T03:06:46.895Z,1018.97
2016-05-09T03:07:40.445Z,1019
2016-05-09T03:08:53.447Z,1018.99
2016-05-09T03:09:27.701Z,1018.95
2016-05-09T03:10:27.937Z,1018.96
2016-05-09T03:11:27.752Z,1018.94
2016-05-09T03:12:47.067Z,1018.93
2016-05-09T03:13:40.523Z,1018.93
2016-05-09T03:14:28.198Z,1018.93
2016-05-09T03:15:53.497Z,1018.94
2016-05-09T03:17:08.594Z,1018.92
2016-05-09T03:18:08.597Z,1018.95
2016-05-09T03:19:08.630Z,1018.92
2016-05-09T03:20:08.633Z,1018.93
2016-05-09T03:21:08.667Z,1018.92
2016-05-09T03:22:08.686Z,1018.89
2016-05-09T03:23:08.704Z,1018.88
2016-05-09T03:24:08.707Z,1018.9
2016-05-09T03:25:21.477Z,1018.9
2016-05-09T03:26:08.774Z,1018.85
2016-05-09T03:27:08.777Z,1018.85
2016-05-09T03:28:08.905Z,1018.83
2016-05-09T03:29:08.924Z,1018.82
2016-05-09T03:30:28.038Z,1018.87
2016-05-09T03:31:08.851Z,1018.83
2016-05-09T03:32:08.868Z,1018.85
2016-05-09T03:33:11.934Z,1018.85
2016-05-09T03:37:23.322Z,1018.82
2016-05-09T03:38:23.404Z,1018.8
2016-05-09T03:39:23.375Z,1018.84
2016-05-09T03:40:23.393Z,1018.82
2016-05-09T03:41:23.395Z,1018.86
2016-05-09T03:42:23.429Z,1018.84
2016-05-09T03:43:42.650Z,1018.85
2016-05-09T03:44:26.810Z,1018.84
2016-05-09T03:45:26.828Z,1018.86
2016-05-09T03:46:26.847Z,1018.85
2016-05-09T03:47:39.599Z,1018.86
2016-05-09T03:48:26.883Z,1018.87
2016-05-09T03:49:30.808Z,1018.86
2016-05-09T03:50:26.966Z,1018.88
2016-05-09T03:51:33.219Z,1018.86
2016-05-09T03:52:42.847Z,1018.86
2016-05-09T03:53:42.865Z,1018.86
2016-05-09T03:54:42.868Z,1018.86
2016-05-09T03:55:42.964Z,1018.86
2016-05-09T03:56:42.921Z,1018.85
2016-05-09T03:57:55.673Z,1018.82
2016-05-09T03:58:43.222Z,1018.81
2016-05-09T03:59:42.974Z,1018.82
2016-05-09T04:00:42.994Z,1018.81
2016-05-09T04:01:43.012Z,1018.82
2016-05-09T04:02:43.030Z,1018.83
2016-05-09T04:03:43.048Z,1018.81
2016-05-09T04:04:43.082Z,1018.79
2016-05-09T04:05:55.819Z,1018.85
2016-05-09T04:06:43.135Z,1018.83
2016-05-09T04:08:02.340Z,1018.82
2016-05-09T04:08:43.203Z,1018.82
2016-05-09T04:09:43.173Z,1018.8
2016-05-09T04:10:43.192Z,1018.83
2016-05-09T04:11:43.210Z,1018.84
2016-05-09T04:12:58.448Z,1018.83
2016-05-09T04:13:58.482Z,1018.82
2016-05-09T04:14:59.906Z,1018.84
2016-05-09T04:16:09.392Z,1018.87
2016-05-09T04:17:09.411Z,1018.89
2016-05-09T04:18:09.414Z,1018.91
2016-05-09T04:19:09.448Z,1018.88
2016-05-09T04:20:09.467Z,1018.92
2016-05-09T04:21:10.906Z,1018.9
2016-05-09T04:22:09.502Z,1018.88
2016-05-09T04:23:09.536Z,1018.93
2016-05-09T04:24:09.555Z,1018.99
2016-05-09T04:25:09.558Z,1018.93
2016-05-09T04:26:28.797Z,1018.95
2016-05-09T04:27:09.594Z,1018.93
2016-05-09T04:29:19.352Z,1018.97
2016-05-09T04:31:34.765Z,1018.98
2016-05-09T04:32:34.782Z,1018.94
2016-05-09T04:33:54.004Z,1018.95
2016-05-09T04:34:34.851Z,1018.94
2016-05-09T04:36:44.481Z,1018.97
2016-05-09T04:37:44.499Z,1018.97
2016-05-09T04:38:59.737Z,1018.97
2016-05-09T04:39:59.754Z,1018.99
2016-05-09T04:40:59.773Z,1019.02
2016-05-09T04:41:59.806Z,1018.99
2016-05-09T04:43:02.856Z,1018.98
2016-05-09T04:44:25.518Z,1019.03
2016-05-09T04:44:59.862Z,1019.03
2016-05-09T04:45:59.881Z,1019.03
2016-05-09T04:46:59.898Z,1019.04
2016-05-09T04:49:16.595Z,1018.94
2016-05-09T04:50:16.596Z,1018.99
2016-05-09T04:51:16.631Z,1018.98
2016-05-09T04:52:32.383Z,1018.99
2016-05-09T04:53:35.667Z,1019.04
2016-05-09T04:54:35.685Z,1019.07
2016-05-09T04:55:37.126Z,1019.03
2016-05-09T04:56:54.925Z,1019.09
2016-05-09T04:57:45.022Z,1019.05
2016-05-09T04:59:00.618Z,1019.05
2016-05-09T05:00:00.636Z,1019.05
2016-05-09T05:01:02.076Z,1019.09
2016-05-09T05:02:13.424Z,1019.11
2016-05-09T05:03:13.426Z,1019.08
2016-05-09T05:05:35.168Z,1019.14
2016-05-09T05:06:35.202Z,1019.19
2016-05-09T05:07:50.471Z,1019.21
2016-05-09T05:08:50.504Z,1019.27
2016-05-09T05:10:00.132Z,1019.29
2016-05-09T05:11:00.166Z,1019.34
2016-05-09T05:13:15.281Z,1019.31
2016-05-09T05:14:15.331Z,1019.34
2016-05-09T05:15:18.508Z,1019.33
2016-05-09T05:16:18.588Z,1019.4
2016-05-09T05:17:18.560Z,1019.34
2016-05-09T05:18:18.578Z,1019.32
2016-05-09T05:19:18.597Z,1019.31
2016-05-09T05:20:20.052Z,1019.36
2016-05-09T05:21:18.649Z,1019.35
2016-05-09T05:22:18.666Z,1019.37
2016-05-09T05:23:18.701Z,1019.38
2016-05-09T05:24:18.720Z,1019.35
2016-05-09T05:25:18.753Z,1019.43
2016-05-09T05:26:18.771Z,1019.42
2016-05-09T05:27:18.805Z,1019.39
2016-05-09T05:28:18.824Z,1019.43
2016-05-09T05:29:18.905Z,1019.39
2016-05-09T05:30:18.877Z,1019.41
2016-05-09T05:31:38.113Z,1019.41
2016-05-09T05:32:18.928Z,1019.45
2016-05-09T05:34:18.996Z,1019.5
2016-05-09T05:35:19.015Z,1019.48
2016-05-09T05:36:19.049Z,1019.54
2016-05-09T05:37:19.067Z,1019.53
2016-05-09T05:38:19.101Z,1019.5
2016-05-09T05:39:19.134Z,1019.54
2016-05-09T05:40:19.168Z,1019.56
2016-05-09T05:41:19.203Z,1019.61
2016-05-09T05:42:19.221Z,1019.64
2016-05-09T05:43:19.254Z,1019.61
2016-05-09T05:44:19.289Z,1019.64
2016-05-09T05:45:19.323Z,1019.68
2016-05-09T05:46:19.342Z,1019.6
2016-05-09T05:47:19.422Z,1019.7
2016-05-09T05:48:19.425Z,1019.68
2016-05-09T05:49:19.442Z,1019.69
2016-05-09T05:50:19.477Z,1019.74
2016-05-09T05:51:19.494Z,1019.78
2016-05-09T05:52:19.528Z,1019.76
2016-05-09T05:53:19.564Z,1019.72
2016-05-09T05:54:19.597Z,1019.77
2016-05-09T05:55:19.647Z,1019.75
2016-05-09T05:56:19.664Z,1019.79
2016-05-09T05:57:19.699Z,1019.77
2016-05-09T05:58:19.716Z,1019.77
2016-05-09T05:59:19.766Z,1019.84
2016-05-09T06:00:19.828Z,1019.84
2016-05-09T06:01:19.922Z,1019.84
2016-05-09T06:02:19.983Z,1019.81
2016-05-09T06:03:20.062Z,1019.85
2016-05-09T06:04:20.140Z,1019.84
2016-05-09T06:05:20.189Z,1019.87
2016-05-09T06:06:20.302Z,1019.83
2016-05-09T06:07:20.272Z,1019.85
2016-05-09T06:08:26.588Z,1019.81
2016-05-09T06:09:20.388Z,1019.88
2016-05-09T06:10:20.412Z,1019.91
2016-05-09T06:11:20.467Z,1019.85
2016-05-09T06:12:20.491Z,1019.86
2016-05-09T06:13:20.531Z,1019.92
2016-05-09T06:14:20.872Z,1019.91
2016-05-09T06:15:20.596Z,1019.9
2016-05-09T06:16:20.631Z,1019.82
2016-05-09T06:17:20.668Z,1019.85
2016-05-09T06:18:20.704Z,1019.85
2016-05-09T06:19:20.739Z,1019.84
2016-05-09T06:20:20.773Z,1019.83
2016-05-09T06:21:20.809Z,1019.89
2016-05-09T06:22:20.843Z,1020
2016-05-09T06:23:20.862Z,1019.89
2016-05-09T06:24:20.897Z,1019.89
2016-05-09T06:25:20.947Z,1019.91
2016-05-09T06:26:20.981Z,1019.9
2016-05-09T06:27:21.015Z,1019.95
2016-05-09T06:28:21.048Z,1019.95
2016-05-09T06:29:21.067Z,1019.96
2016-05-09T06:30:21.117Z,1019.95
2016-05-09T06:31:21.135Z,1019.96
2016-05-09T06:32:21.308Z,1020.05
2016-05-09T06:33:21.202Z,1020.08
2016-05-09T06:34:21.236Z,1020.09
2016-05-09T06:35:21.271Z,1020.07
2016-05-09T06:36:21.305Z,1020.06
2016-05-09T06:37:21.338Z,1020.03
2016-05-09T06:38:40.575Z,1020.01
2016-05-09T06:39:24.641Z,1020.04
2016-05-09T06:40:24.674Z,1020.06
2016-05-09T06:41:24.802Z,1020.09
2016-05-09T06:42:24.743Z,1020.11
2016-05-09T06:43:24.776Z,1020.13
2016-05-09T06:44:37.546Z,1020.09
2016-05-09T06:45:26.251Z,1020.09
2016-05-09T06:46:24.894Z,1020.08
2016-05-09T06:47:24.912Z,1020.1
2016-05-09T06:48:24.946Z,1020.1
2016-05-09T06:49:24.980Z,1020.08
2016-05-09T06:50:25.014Z,1020.09
2016-05-09T06:51:25.064Z,1020.09
2016-05-09T06:52:25.081Z,1020.1
2016-05-09T06:53:25.115Z,1020.09
2016-05-09T06:54:25.165Z,1020.14
2016-05-09T06:55:25.184Z,1020.17
2016-05-09T06:56:25.234Z,1020.24
2016-05-09T06:57:25.251Z,1020.18
2016-05-09T06:58:25.286Z,1020.07
2016-05-09T06:59:25.336Z,1020.1
2016-05-09T07:00:25.353Z,1020.14
2016-05-09T07:01:26.809Z,1020.11
2016-05-09T07:02:25.436Z,1020.16
2016-05-09T07:03:44.674Z,1020.17
2016-05-09T07:04:25.552Z,1020.15
2016-05-09T07:07:06.495Z,1020.19
2016-05-09T07:07:40.841Z,1020.12
2016-05-09T07:08:40.891Z,1020.22
2016-05-09T07:09:53.658Z,1020.16
2016-05-09T07:10:42.380Z,1020.26
2016-05-09T07:12:06.664Z,1020.21
2016-05-09T07:12:41.027Z,1020.1
2016-05-09T07:13:41.342Z,1020.18
2016-05-09T07:14:41.094Z,1020.18
2016-05-09T07:16:00.332Z,1020.13
2016-05-09T07:16:44.146Z,1020.15
2016-05-09T07:18:03.384Z,1020.17
2016-05-09T07:18:44.230Z,1020.13
2016-05-09T07:21:02.438Z,1020.08
2016-05-09T07:22:02.473Z,1020.06
2016-05-09T07:23:02.506Z,1020.1
2016-05-09T07:24:02.540Z,1020.12
2016-05-09T07:25:02.574Z,1020.15
2016-05-09T07:26:02.609Z,1020.14
2016-05-09T07:27:02.658Z,1020.09
2016-05-09T07:28:02.676Z,1020.12
2016-05-09T07:29:06.101Z,1020.07
2016-05-09T07:30:02.745Z,1020.06
2016-05-09T07:31:09.059Z,1020.09
2016-05-09T07:32:02.811Z,1020.09
2016-05-09T07:33:02.862Z,1020.03
2016-05-09T07:34:02.895Z,1020.01
2016-05-09T07:35:05.961Z,1020.02
2016-05-09T07:36:02.964Z,1020.07
2016-05-09T07:37:15.731Z,1020.04
2016-05-09T07:38:03.031Z,1020.02
2016-05-09T07:39:28.755Z,1020
2016-05-09T07:40:12.693Z,1020.1
2016-05-09T07:41:12.727Z,1020.08
2016-05-09T07:42:12.777Z,1020.02
2016-05-09T07:43:38.485Z,1020.03
2016-05-09T07:44:23.625Z,1020.07
2016-05-09T07:45:22.472Z,1019.95
2016-05-09T07:46:25.740Z,1020.01
2016-05-09T07:47:51.386Z,1020.04
2016-05-09T07:48:37.076Z,1020.05
2016-05-09T07:49:56.330Z,1020.05
2016-05-09T07:50:38.582Z,1019.96
2016-05-09T07:51:37.184Z,1020.03
2016-05-09T07:52:37.218Z,1019.98
2016-05-09T07:53:37.251Z,1020.04
2016-05-09T07:54:37.292Z,1020.03
2016-05-09T07:55:37.328Z,1019.98
2016-05-09T07:56:37.363Z,1020.02
2016-05-09T07:57:37.396Z,1019.92
2016-05-09T07:58:38.837Z,1019.9
2016-05-09T07:59:37.464Z,1019.81
2016-05-09T08:00:37.482Z,1019.85
2016-05-09T08:02:37.566Z,1019.67
2016-05-09T08:03:37.646Z,1019.66
2016-05-09T08:04:38.462Z,1019.6
2016-05-09T08:05:42.699Z,1019.59
2016-05-09T08:06:38.076Z,1019.57
2016-05-09T08:07:37.985Z,1019.56
2016-05-09T08:08:39.582Z,1019.64
2016-05-09T08:09:37.788Z,1019.49
2016-05-09T08:10:37.838Z,1019.61
2016-05-09T08:11:47.590Z,1019.57
2016-05-09T08:12:37.890Z,1019.51
2016-05-09T08:14:53.161Z,1019.57
2016-05-09T08:15:53.195Z,1019.67
2016-05-09T08:16:53.214Z,1019.46
2016-05-09T08:17:53.248Z,1019.55
2016-05-09T08:19:12.484Z,1019.53
2016-05-09T08:20:18.986Z,1019.44
2016-05-09T08:20:53.334Z,1019.56
2016-05-09T08:21:53.383Z,1019.54
2016-05-09T08:22:53.385Z,1019.56
2016-05-09T08:24:03.139Z,1019.48
2016-05-09T08:25:03.157Z,1019.56
2016-05-09T08:26:04.613Z,1019.51
2016-05-09T08:27:03.209Z,1019.47
2016-05-09T08:28:03.243Z,1019.51
2016-05-09T08:29:03.261Z,1019.41
2016-05-09T08:30:03.311Z,1019.37
2016-05-09T08:31:03.329Z,1019.58
2016-05-09T08:32:03.504Z,1019.47
2016-05-09T08:33:22.585Z,1019.41
2016-05-09T08:34:03.399Z,1019.42
2016-05-09T08:35:03.433Z,1019.43
2016-05-09T08:36:03.452Z,1019.39
2016-05-09T08:37:03.486Z,1019.36
2016-05-09T08:38:22.723Z,1019.36
2016-05-09T08:39:06.522Z,1019.35
2016-05-09T08:40:25.759Z,1019.43
2016-05-09T08:41:09.700Z,1019.3
2016-05-09T08:42:09.734Z,1019.29
2016-05-09T08:43:09.768Z,1019.27
2016-05-09T08:44:11.192Z,1019.32
2016-05-09T08:45:09.804Z,1019.3
2016-05-09T08:46:09.838Z,1019.32
2016-05-09T08:47:12.887Z,1019.34
2016-05-09T08:48:09.890Z,1019.26
2016-05-09T08:49:09.925Z,1019.4
2016-05-09T08:50:22.677Z,1019.26
2016-05-09T08:51:09.976Z,1019.27
2016-05-09T08:52:35.670Z,1019.37
2016-05-09T08:53:10.029Z,1019.31
2016-05-09T08:54:10.234Z,1019.31
2016-05-09T08:55:19.956Z,1019.2
2016-05-09T08:56:19.975Z,1019.31
2016-05-09T08:57:35.386Z,1019.31
2016-05-09T08:58:35.420Z,1019.25
2016-05-09T08:59:35.547Z,1019.31
2016-05-09T09:00:35.472Z,1019.32
2016-05-09T09:01:35.506Z,1019.28
2016-05-09T09:02:35.524Z,1019.31
2016-05-09T09:03:35.558Z,1019.34
2016-05-09T09:04:35.577Z,1019.25
2016-05-09T09:05:35.610Z,1019.29
2016-05-09T09:06:35.629Z,1019.32
2016-05-09T09:07:35.662Z,1019.29
2016-05-09T09:08:35.682Z,1019.23
2016-05-09T09:09:35.715Z,1019.24
2016-05-09T09:10:35.748Z,1019.19
2016-05-09T09:11:35.751Z,1019.15
2016-05-09T09:12:35.896Z,1019.15
2016-05-09T09:13:35.835Z,1019.18
2016-05-09T09:14:55.073Z,1019.18
2016-05-09T09:15:35.873Z,1019.18
2016-05-09T09:17:51.753Z,1019.12
2016-05-09T09:18:51.756Z,1019.1
2016-05-09T09:19:51.804Z,1019.15
2016-05-09T09:20:51.823Z,1019.13
2016-05-09T09:22:11.044Z,1019.08
2016-05-09T09:22:51.875Z,1019.12
2016-05-09T09:24:17.565Z,1019.1
2016-05-09T09:25:01.522Z,1019.15
2016-05-09T09:26:01.555Z,1018.94
2016-05-09T09:27:01.573Z,1019.12
2016-05-09T09:28:01.608Z,1019.21
2016-05-09T09:29:01.625Z,1019.09
2016-05-09T09:30:01.675Z,1019.13
2016-05-09T09:31:01.693Z,1019.11
2016-05-09T09:32:01.712Z,1019.09
2016-05-09T09:33:01.793Z,1019.02
2016-05-09T09:34:01.764Z,1019.02
2016-05-09T09:35:01.799Z,1019.1
2016-05-09T09:36:01.816Z,1019.14
2016-05-09T09:37:01.835Z,1019.15
2016-05-09T09:38:01.869Z,1019.03
2016-05-09T09:39:01.902Z,1018.98
2016-05-09T09:40:01.921Z,1019.02
2016-05-09T09:41:01.955Z,1019.35
2016-05-09T09:42:01.973Z,1019.12
2016-05-09T09:43:02.007Z,1019.01
2016-05-09T09:44:02.353Z,1018.95
2016-05-09T09:45:05.091Z,1018.95
2016-05-09T09:46:02.093Z,1018.97
2016-05-09T09:47:02.126Z,1018.97
2016-05-09T09:48:02.146Z,1019.11
2016-05-09T09:49:02.164Z,1018.97
2016-05-09T09:50:02.198Z,1018.85
2016-05-09T09:51:14.966Z,1018.88
2016-05-09T09:52:02.250Z,1018.86
2016-05-09T09:53:27.940Z,1018.72
2016-05-09T09:54:02.303Z,1018.85
2016-05-09T09:55:02.337Z,1018.9
2016-05-09T09:56:02.355Z,1018.71
2016-05-09T09:57:03.795Z,1018.73
2016-05-09T09:58:19.047Z,1018.81
2016-05-09T09:59:19.066Z,1018.84
2016-05-09T10:00:19.083Z,1018.86
2016-05-09T10:01:31.868Z,1018.84
2016-05-09T10:02:19.168Z,1018.82
2016-05-09T10:03:38.392Z,1018.93
2016-05-09T10:04:31.939Z,1018.83
2016-05-09T10:05:19.239Z,1019.01
2016-05-09T10:06:47.071Z,1018.82
2016-05-09T10:07:34.352Z,1018.92
2016-05-09T10:08:34.387Z,1018.76
2016-05-09T10:09:34.405Z,1018.73
2016-05-09T10:10:34.438Z,1018.72
2016-05-09T10:11:34.473Z,1018.72
2016-05-09T10:12:34.507Z,1018.8
2016-05-09T10:13:35.932Z,1018.69
2016-05-09T10:14:53.765Z,1018.71
2016-05-09T10:15:34.577Z,1018.66
2016-05-09T10:16:34.596Z,1018.52
2016-05-09T10:17:34.630Z,1018.64
2016-05-09T10:18:34.664Z,1018.66
2016-05-09T10:19:34.698Z,1018.7
2016-05-09T10:20:53.922Z,1018.7
2016-05-09T10:21:47.471Z,1018.65
2016-05-09T10:22:34.784Z,1018.65
2016-05-09T10:24:00.476Z,1018.73
2016-05-09T10:24:34.820Z,1018.69
2016-05-09T10:25:34.854Z,1018.56
2016-05-09T10:26:36.295Z,1018.61
2016-05-09T10:27:34.906Z,1018.53
2016-05-09T10:28:47.662Z,1018.65
2016-05-09T10:29:34.975Z,1018.67
2016-05-09T10:30:34.993Z,1018.58
2016-05-09T10:31:35.027Z,1018.63
2016-05-09T10:32:35.061Z,1018.6
2016-05-09T10:33:35.079Z,1018.6
2016-05-09T10:34:38.223Z,1018.55
2016-05-09T10:35:38.241Z,1018.61
2016-05-09T10:36:51.011Z,1018.55
2016-05-09T10:37:38.293Z,1018.61
2016-05-09T10:38:38.327Z,1018.54
2016-05-09T10:39:41.379Z,1018.51
2016-05-09T10:40:38.379Z,1018.55
2016-05-09T10:41:51.135Z,1018.52
2016-05-09T10:42:51.169Z,1018.59
2016-05-09T10:43:38.466Z,1018.54
2016-05-09T10:44:38.499Z,1018.52
2016-05-09T10:45:39.926Z,1018.42
2016-05-09T10:46:38.551Z,1018.49
2016-05-09T10:47:38.570Z,1018.5
2016-05-09T10:48:40.029Z,1018.48
2016-05-09T10:50:04.296Z,1018.54
2016-05-09T10:50:48.268Z,1018.42
2016-05-09T10:52:07.583Z,1018.46
2016-05-09T10:52:48.336Z,1018.48
2016-05-09T10:54:51.404Z,1018.46
2016-05-09T10:55:48.407Z,1018.48
2016-05-09T10:56:48.425Z,1018.49
2016-05-09T10:57:48.459Z,1018.46
2016-05-09T10:58:48.477Z,1018.45
2016-05-09T11:00:07.730Z,1018.47
2016-05-09T11:01:01.280Z,1018.52
2016-05-09T11:01:48.563Z,1018.4
2016-05-09T11:02:48.597Z,1018.38
2016-05-09T11:03:51.959Z,1018.4
2016-05-09T11:04:51.993Z,1018.44
2016-05-09T11:05:52.011Z,1018.42
2016-05-09T11:07:11.264Z,1018.46
2016-05-09T11:07:52.080Z,1018.39
2016-05-09T11:09:17.832Z,1018.44
2016-05-09T11:09:53.554Z,1018.35
2016-05-09T11:10:52.149Z,1018.36
2016-05-09T11:13:01.828Z,1018.3
2016-05-09T11:15:17.396Z,1018.45
2016-05-09T11:16:17.429Z,1018.29
2016-05-09T11:17:17.447Z,1018.28
2016-05-09T11:18:17.481Z,1018.28
2016-05-09T11:19:30.249Z,1018.28
2016-05-09T11:20:17.534Z,1018.27
2016-05-09T11:21:17.567Z,1018.25
2016-05-09T11:22:58.510Z,1018.24
2016-05-09T11:23:58.545Z,1018.25
2016-05-09T11:24:58.563Z,1018.21
2016-05-09T11:26:01.612Z,1018.13
2016-05-09T11:27:11.350Z,1018.18
2016-05-09T11:27:58.649Z,1018.12
2016-05-09T11:28:58.667Z,1018.15
2016-05-09T11:30:24.357Z,1018.22
2016-05-09T11:31:24.392Z,1018.17
2016-05-09T11:32:58.772Z,1018.29
2016-05-09T11:33:58.805Z,1018.16
2016-05-09T11:34:58.839Z,1018.22
2016-05-09T11:36:08.499Z,1018.12
2016-05-09T11:37:08.533Z,1018.19
2016-05-09T11:38:23.786Z,1018.25
2016-05-09T11:39:23.803Z,1018.24
2016-05-09T11:40:36.572Z,1018.17
2016-05-09T11:41:36.591Z,1018.18
2016-05-09T11:43:23.924Z,1018.12
2016-05-09T11:44:23.989Z,1018.24
2016-05-09T11:45:23.991Z,1018.17
2016-05-09T11:46:24.041Z,1018.17
2016-05-09T11:47:43.235Z,1018.13
2016-05-09T11:48:36.844Z,1018.21
2016-05-09T11:49:24.080Z,1018.07
2016-05-09T11:50:24.114Z,1018.16
2016-05-09T11:51:24.132Z,1018.17
2016-05-09T11:52:24.167Z,1018.14
2016-05-09T11:53:24.201Z,1018.08
2016-05-09T11:54:24.235Z,1018.15
2016-05-09T11:55:24.253Z,1017.99
2016-05-09T11:56:24.286Z,1018.06
2016-05-09T11:57:24.305Z,1018.16
2016-05-09T11:58:24.340Z,1018.1
2016-05-09T11:59:27.389Z,1017.98
2016-05-09T12:00:24.391Z,1018.16
2016-05-09T12:01:24.425Z,1018.04
2016-05-09T12:02:37.178Z,1017.99
2016-05-09T12:03:24.478Z,1018.06
2016-05-09T12:04:24.496Z,1017.98
2016-05-09T12:05:24.530Z,1018.08
2016-05-09T12:06:24.563Z,1018.1
2016-05-09T12:07:37.332Z,1018
2016-05-09T12:08:37.351Z,1018.06
2016-05-09T12:09:24.650Z,1018.04
2016-05-09T12:10:34.277Z,1017.92
2016-05-09T12:11:34.311Z,1017.95
2016-05-09T12:12:34.345Z,1017.96
2016-05-09T12:13:47.101Z,1018.03
2016-05-09T12:14:34.866Z,1017.96
2016-05-09T12:16:49.765Z,1017.85
2016-05-09T12:17:49.783Z,1018.12
2016-05-09T12:19:02.599Z,1018
2016-05-09T12:19:51.257Z,1017.88
2016-05-09T12:20:49.870Z,1017.98
2016-05-09T12:21:49.904Z,1017.87
2016-05-09T12:22:49.938Z,1017.98
2016-05-09T12:23:49.956Z,1017.92
2016-05-09T12:24:49.973Z,1018.24
2016-05-09T12:25:50.008Z,1017.95
2016-05-09T12:27:00.979Z,1017.97
2016-05-09T12:28:00.982Z,1017.92
2016-05-09T12:29:01.001Z,1017.93
2016-05-09T12:30:01.034Z,1017.86
2016-05-09T12:31:20.287Z,1017.95
2016-05-09T12:32:16.821Z,1017.87
2016-05-09T12:33:16.856Z,1017.83
2016-05-09T12:34:29.639Z,1017.84
2016-05-09T12:35:16.908Z,1017.79
2016-05-09T12:36:16.941Z,1017.72
2016-05-09T12:37:42.647Z,1017.82
2016-05-09T12:38:39.197Z,1017.79
2016-05-09T12:39:39.214Z,1017.67
2016-05-09T12:40:39.249Z,1017.76
2016-05-09T12:41:39.283Z,1017.67
2016-05-09T12:42:39.302Z,1017.68
2016-05-09T12:44:05.243Z,1017.76
2016-05-09T12:44:39.368Z,1017.64
2016-05-09T12:45:39.388Z,1017.65
2016-05-09T12:46:39.422Z,1017.65